sensor_id;sensor_type;location;lat;lon;timestamp;temperature;humidity
1614;DHT22;800;48.824;9.346;2023-08-31T00:00:40;22.20;58.70
1614;DHT22;800;48.824;9.346;2023-08-31T00:03:06;22.10;58.90
1614;DHT22;800;48.824;9.346;2023-08-31T00:05:32;21.90;59.30
1614;DHT22;800;48.824;9.346;2023-08-31T00:07:57;21.90;59.60
1614;DHT22;800;48.824;9.346;2023-08-31T00:10:23;21.80;60.00
1614;DHT22;800;48.824;9.346;2023-08-31T00:12:49;21.80;60.20
1614;DHT22;800;48.824;9.346;2023-08-31T00:15:15;21.80;60.40
1614;DHT22;800;48.824;9.346;2023-08-31T00:17:41;21.70;60.30
1614;DHT22;800;48.824;9.346;2023-08-31T00:20:07;21.70;60.50
1614;DHT22;800;48.824;9.346;2023-08-31T00:22:37;21.70;60.50
1614;DHT22;800;48.824;9.346;2023-08-31T00:25:04;21.70;60.60
1614;DHT22;800;48.824;9.346;2023-08-31T00:27:31;21.60;60.90
1614;DHT22;800;48.824;9.346;2023-08-31T00:29:56;21.70;61.00
1614;DHT22;800;48.824;9.346;2023-08-31T00:32:23;21.60;60.80
1614;DHT22;800;48.824;9.346;2023-08-31T00:34:49;21.60;61.10
1614;DHT22;800;48.824;9.346;2023-08-31T00:37:15;21.60;61.60
1614;DHT22;800;48.824;9.346;2023-08-31T00:39:40;21.50;62.70
1614;DHT22;800;48.824;9.346;2023-08-31T00:42:06;21.50;61.90
1614;DHT22;800;48.824;9.346;2023-08-31T00:44:31;21.50;61.70
1614;DHT22;800;48.824;9.346;2023-08-31T00:46:57;21.50;61.60
1614;DHT22;800;48.824;9.346;2023-08-31T00:49:23;21.50;62.20
1614;DHT22;800;48.824;9.346;2023-08-31T00:51:49;21.50;61.40
1614;DHT22;800;48.824;9.346;2023-08-31T00:54:19;21.50;61.20
1614;DHT22;800;48.824;9.346;2023-08-31T00:56:46;21.50;60.90
1614;DHT22;800;48.824;9.346;2023-08-31T00:59:17;21.50;60.80
1614;DHT22;800;48.824;9.346;2023-08-31T01:10:39;21.90;62.30
1614;DHT22;800;48.824;9.346;2023-08-31T01:13:12;22.00;61.70
1614;DHT22;800;48.824;9.346;2023-08-31T01:15:41;22.10;60.90
1614;DHT22;800;48.824;9.346;2023-08-31T01:18:10;22.10;60.60
1614;DHT22;800;48.824;9.346;2023-08-31T01:20:46;22.10;59.30
1614;DHT22;800;48.824;9.346;2023-08-31T01:23:19;22.10;59.40
1614;DHT22;800;48.824;9.346;2023-08-31T01:25:46;22.10;59.00
1614;DHT22;800;48.824;9.346;2023-08-31T01:28:13;22.10;59.60
1614;DHT22;800;48.824;9.346;2023-08-31T01:30:39;22.10;59.40
1614;DHT22;800;48.824;9.346;2023-08-31T01:33:04;22.20;59.50
1614;DHT22;800;48.824;9.346;2023-08-31T01:35:40;22.20;59.70
1614;DHT22;800;48.824;9.346;2023-08-31T01:38:10;22.30;60.70
1614;DHT22;800;48.824;9.346;2023-08-31T01:40:49;22.40;59.80
1614;DHT22;800;48.824;9.346;2023-08-31T01:43:17;22.40;59.30
1614;DHT22;800;48.824;9.346;2023-08-31T01:50:34;22.40;57.50
1614;DHT22;800;48.824;9.346;2023-08-31T01:53:00;22.30;57.30
1614;DHT22;800;48.824;9.346;2023-08-31T01:55:25;22.20;57.40
1614;DHT22;800;48.824;9.346;2023-08-31T01:57:51;22.10;57.60
1614;DHT22;800;48.824;9.346;2023-08-31T02:00:18;22.10;57.60
1614;DHT22;800;48.824;9.346;2023-08-31T02:02:44;22.00;57.70
1614;DHT22;800;48.824;9.346;2023-08-31T02:05:09;21.90;57.90
1614;DHT22;800;48.824;9.346;2023-08-31T02:07:35;21.80;57.50
1614;DHT22;800;48.824;9.346;2023-08-31T02:10:01;21.60;57.50
1614;DHT22;800;48.824;9.346;2023-08-31T02:12:26;21.50;57.90
1614;DHT22;800;48.824;9.346;2023-08-31T02:14:52;21.40;58.00
1614;DHT22;800;48.824;9.346;2023-08-31T02:17:18;21.40;58.20
1614;DHT22;800;48.824;9.346;2023-08-31T02:19:43;21.30;58.30
1614;DHT22;800;48.824;9.346;2023-08-31T02:22:09;21.30;58.30
1614;DHT22;800;48.824;9.346;2023-08-31T02:24:34;21.40;58.40
1614;DHT22;800;48.824;9.346;2023-08-31T02:27:00;21.40;58.60
1614;DHT22;800;48.824;9.346;2023-08-31T02:29:26;21.40;58.60
1614;DHT22;800;48.824;9.346;2023-08-31T02:31:51;21.50;58.70
1614;DHT22;800;48.824;9.346;2023-08-31T02:34:17;21.50;58.90
1614;DHT22;800;48.824;9.346;2023-08-31T02:36:42;21.40;58.90
1614;DHT22;800;48.824;9.346;2023-08-31T02:39:08;21.40;58.80
1614;DHT22;800;48.824;9.346;2023-08-31T02:41:34;21.30;58.80
1614;DHT22;800;48.824;9.346;2023-08-31T02:43:59;21.30;58.90
1614;DHT22;800;48.824;9.346;2023-08-31T02:46:25;21.20;59.00
1614;DHT22;800;48.824;9.346;2023-08-31T02:48:51;21.20;59.30
1614;DHT22;800;48.824;9.346;2023-08-31T02:51:16;21.30;59.40
1614;DHT22;800;48.824;9.346;2023-08-31T02:53:42;21.30;59.40
1614;DHT22;800;48.824;9.346;2023-08-31T02:56:07;21.30;59.20
1614;DHT22;800;48.824;9.346;2023-08-31T02:58:33;21.20;59.20
1614;DHT22;800;48.824;9.346;2023-08-31T03:01:09;21.20;59.30
1614;DHT22;800;48.824;9.346;2023-08-31T03:03:38;21.10;59.50
1614;DHT22;800;48.824;9.346;2023-08-31T03:06:09;20.90;59.80
1614;DHT22;800;48.824;9.346;2023-08-31T03:08:36;20.70;59.80
1614;DHT22;800;48.824;9.346;2023-08-31T03:11:02;20.50;60.90
1614;DHT22;800;48.824;9.346;2023-08-31T03:13:28;20.50;61.80
1614;DHT22;800;48.824;9.346;2023-08-31T03:15:54;20.50;61.70
1614;DHT22;800;48.824;9.346;2023-08-31T03:18:19;20.50;61.30
1614;DHT22;800;48.824;9.346;2023-08-31T03:20:45;20.50;61.20
1614;DHT22;800;48.824;9.346;2023-08-31T03:23:10;20.50;61.30
1614;DHT22;800;48.824;9.346;2023-08-31T03:25:36;20.40;61.40
1614;DHT22;800;48.824;9.346;2023-08-31T03:28:02;20.40;61.80
1614;DHT22;800;48.824;9.346;2023-08-31T03:30:28;20.50;61.80
1614;DHT22;800;48.824;9.346;2023-08-31T03:32:54;20.40;61.50
1614;DHT22;800;48.824;9.346;2023-08-31T03:35:19;20.40;61.60
1614;DHT22;800;48.824;9.346;2023-08-31T03:37:49;20.40;61.70
1614;DHT22;800;48.824;9.346;2023-08-31T03:40:14;20.40;62.20
1614;DHT22;800;48.824;9.346;2023-08-31T03:42:40;20.40;62.00
1614;DHT22;800;48.824;9.346;2023-08-31T03:45:06;20.30;61.90
1614;DHT22;800;48.824;9.346;2023-08-31T03:47:32;20.30;61.70
1614;DHT22;800;48.824;9.346;2023-08-31T03:49:57;20.30;61.70
1614;DHT22;800;48.824;9.346;2023-08-31T03:52:23;20.40;61.90
1614;DHT22;800;48.824;9.346;2023-08-31T03:54:49;20.50;62.70
1614;DHT22;800;48.824;9.346;2023-08-31T03:57:15;20.60;62.30
1614;DHT22;800;48.824;9.346;2023-08-31T03:59:40;20.70;61.70
1614;DHT22;800;48.824;9.346;2023-08-31T04:02:06;20.80;61.70
1614;DHT22;800;48.824;9.346;2023-08-31T04:04:31;20.90;61.30
1614;DHT22;800;48.824;9.346;2023-08-31T04:06:58;20.90;60.80
1614;DHT22;800;48.824;9.346;2023-08-31T04:09:23;20.90;60.70
1614;DHT22;800;48.824;9.346;2023-08-31T04:11:49;20.80;60.60
1614;DHT22;800;48.824;9.346;2023-08-31T04:14:14;20.70;60.70
1614;DHT22;800;48.824;9.346;2023-08-31T04:16:40;20.70;61.10
1614;DHT22;800;48.824;9.346;2023-08-31T04:19:05;20.70;61.00
1614;DHT22;800;48.824;9.346;2023-08-31T04:21:31;20.70;61.10
1614;DHT22;800;48.824;9.346;2023-08-31T04:23:56;20.70;60.90
1614;DHT22;800;48.824;9.346;2023-08-31T04:26:25;20.70;60.10
1614;DHT22;800;48.824;9.346;2023-08-31T04:28:50;20.60;59.80
1614;DHT22;800;48.824;9.346;2023-08-31T04:31:16;20.50;59.90
1614;DHT22;800;48.824;9.346;2023-08-31T04:33:41;20.50;60.10
1614;DHT22;800;48.824;9.346;2023-08-31T04:36:07;20.30;60.00
1614;DHT22;800;48.824;9.346;2023-08-31T04:38:34;20.30;60.10
1614;DHT22;800;48.824;9.346;2023-08-31T04:41:00;20.20;60.40
1614;DHT22;800;48.824;9.346;2023-08-31T04:43:26;20.10;60.60
1614;DHT22;800;48.824;9.346;2023-08-31T04:45:53;19.90;60.90
1614;DHT22;800;48.824;9.346;2023-08-31T04:48:19;19.90;61.50
1614;DHT22;800;48.824;9.346;2023-08-31T04:50:44;19.80;61.70
1614;DHT22;800;48.824;9.346;2023-08-31T04:53:10;19.80;61.80
1614;DHT22;800;48.824;9.346;2023-08-31T04:55:35;19.80;61.90
1614;DHT22;800;48.824;9.346;2023-08-31T04:58:01;19.70;62.10
1614;DHT22;800;48.824;9.346;2023-08-31T05:00:26;19.70;62.60
1614;DHT22;800;48.824;9.346;2023-08-31T05:02:52;19.60;62.60
1614;DHT22;800;48.824;9.346;2023-08-31T05:05:18;19.60;62.70
1614;DHT22;800;48.824;9.346;2023-08-31T05:07:46;19.60;62.70
1614;DHT22;800;48.824;9.346;2023-08-31T05:10:12;19.60;62.80
1614;DHT22;800;48.824;9.346;2023-08-31T05:12:37;19.50;62.50
1614;DHT22;800;48.824;9.346;2023-08-31T05:15:03;19.50;62.50
1614;DHT22;800;48.824;9.346;2023-08-31T05:17:29;19.60;62.70
1614;DHT22;800;48.824;9.346;2023-08-31T05:19:55;19.60;62.80
1614;DHT22;800;48.824;9.346;2023-08-31T05:22:21;19.60;62.80
1614;DHT22;800;48.824;9.346;2023-08-31T05:24:47;19.60;62.70
1614;DHT22;800;48.824;9.346;2023-08-31T05:27:13;19.50;63.60
1614;DHT22;800;48.824;9.346;2023-08-31T05:29:38;19.60;65.60
1614;DHT22;800;48.824;9.346;2023-08-31T05:32:04;19.60;63.80
1614;DHT22;800;48.824;9.346;2023-08-31T05:34:30;19.60;63.90
1614;DHT22;800;48.824;9.346;2023-08-31T05:36:58;19.70;63.70
1614;DHT22;800;48.824;9.346;2023-08-31T05:39:23;19.80;63.70
1614;DHT22;800;48.824;9.346;2023-08-31T05:41:49;19.90;62.80
1614;DHT22;800;48.824;9.346;2023-08-31T05:44:14;19.90;62.00
1614;DHT22;800;48.824;9.346;2023-08-31T05:46:40;19.90;62.20
1614;DHT22;800;48.824;9.346;2023-08-31T05:49:06;19.90;62.20
1614;DHT22;800;48.824;9.346;2023-08-31T05:51:32;19.90;61.70
1614;DHT22;800;48.824;9.346;2023-08-31T05:53:58;19.90;61.80
1614;DHT22;800;48.824;9.346;2023-08-31T05:56:23;20.00;61.70
1614;DHT22;800;48.824;9.346;2023-08-31T05:58:49;20.00;61.40
1614;DHT22;800;48.824;9.346;2023-08-31T06:01:15;20.00;61.50
1614;DHT22;800;48.824;9.346;2023-08-31T06:03:41;20.00;61.80
1614;DHT22;800;48.824;9.346;2023-08-31T06:06:07;20.00;61.50
1614;DHT22;800;48.824;9.346;2023-08-31T06:08:32;20.10;61.80
1614;DHT22;800;48.824;9.346;2023-08-31T06:10:58;20.20;61.70
1614;DHT22;800;48.824;9.346;2023-08-31T06:13:24;20.30;61.30
1614;DHT22;800;48.824;9.346;2023-08-31T06:15:50;20.40;61.20
1614;DHT22;800;48.824;9.346;2023-08-31T06:18:15;20.60;61.20
1614;DHT22;800;48.824;9.346;2023-08-31T06:20:41;20.70;60.80
1614;DHT22;800;48.824;9.346;2023-08-31T06:23:07;20.80;60.50
1614;DHT22;800;48.824;9.346;2023-08-31T06:25:32;20.90;60.30
1614;DHT22;800;48.824;9.346;2023-08-31T06:27:58;20.90;60.20
1614;DHT22;800;48.824;9.346;2023-08-31T06:30:24;21.00;60.10
1614;DHT22;800;48.824;9.346;2023-08-31T06:32:50;21.10;60.10
1614;DHT22;800;48.824;9.346;2023-08-31T06:35:15;21.20;60.20
1614;DHT22;800;48.824;9.346;2023-08-31T06:37:42;21.30;60.00
1614;DHT22;800;48.824;9.346;2023-08-31T06:40:08;21.40;59.80
1614;DHT22;800;48.824;9.346;2023-08-31T06:42:35;21.40;59.40
1614;DHT22;800;48.824;9.346;2023-08-31T06:45:03;21.40;59.10
1614;DHT22;800;48.824;9.346;2023-08-31T06:47:28;21.40;58.70
1614;DHT22;800;48.824;9.346;2023-08-31T06:49:54;21.40;58.30
1614;DHT22;800;48.824;9.346;2023-08-31T06:52:19;21.20;58.40
1614;DHT22;800;48.824;9.346;2023-08-31T06:54:45;21.10;58.60
1614;DHT22;800;48.824;9.346;2023-08-31T06:57:11;20.90;59.10
1614;DHT22;800;48.824;9.346;2023-08-31T06:59:36;20.90;59.00
1614;DHT22;800;48.824;9.346;2023-08-31T07:02:02;20.90;59.10
1614;DHT22;800;48.824;9.346;2023-08-31T07:04:27;20.90;59.30
1614;DHT22;800;48.824;9.346;2023-08-31T07:06:53;20.80;59.50
1614;DHT22;800;48.824;9.346;2023-08-31T07:09:21;20.90;59.80
1614;DHT22;800;48.824;9.346;2023-08-31T07:11:47;20.90;59.70
1614;DHT22;800;48.824;9.346;2023-08-31T07:14:13;21.00;59.60
1614;DHT22;800;48.824;9.346;2023-08-31T07:16:38;20.90;59.50
1614;DHT22;800;48.824;9.346;2023-08-31T07:19:04;21.00;59.40
1614;DHT22;800;48.824;9.346;2023-08-31T07:21:30;21.10;59.10
1614;DHT22;800;48.824;9.346;2023-08-31T07:23:56;21.10;58.80
1614;DHT22;800;48.824;9.346;2023-08-31T07:26:22;21.20;58.20
1614;DHT22;800;48.824;9.346;2023-08-31T07:28:48;21.30;58.00
1614;DHT22;800;48.824;9.346;2023-08-31T07:31:14;21.40;57.60
1614;DHT22;800;48.824;9.346;2023-08-31T07:33:40;21.10;57.20
1614;DHT22;800;48.824;9.346;2023-08-31T07:36:06;21.00;58.10
1614;DHT22;800;48.824;9.346;2023-08-31T07:38:36;21.00;57.90
1614;DHT22;800;48.824;9.346;2023-08-31T07:41:04;20.90;57.10
1614;DHT22;800;48.824;9.346;2023-08-31T07:43:30;20.90;57.90
1614;DHT22;800;48.824;9.346;2023-08-31T07:45:56;20.90;57.80
1614;DHT22;800;48.824;9.346;2023-08-31T07:48:23;21.10;57.90
1614;DHT22;800;48.824;9.346;2023-08-31T07:50:49;21.10;57.70
1614;DHT22;800;48.824;9.346;2023-08-31T07:53:14;21.20;57.60
1614;DHT22;800;48.824;9.346;2023-08-31T07:55:40;21.30;57.10
1614;DHT22;800;48.824;9.346;2023-08-31T07:58:06;21.50;57.20
1614;DHT22;800;48.824;9.346;2023-08-31T08:00:32;21.60;57.10
1614;DHT22;800;48.824;9.346;2023-08-31T08:02:57;21.70;57.00
1614;DHT22;800;48.824;9.346;2023-08-31T08:05:23;21.80;56.00
1614;DHT22;800;48.824;9.346;2023-08-31T08:07:48;22.00;56.10
1614;DHT22;800;48.824;9.346;2023-08-31T08:10:14;22.20;55.30
1614;DHT22;800;48.824;9.346;2023-08-31T08:12:41;22.40;54.00
1614;DHT22;800;48.824;9.346;2023-08-31T08:15:09;22.50;53.40
1614;DHT22;800;48.824;9.346;2023-08-31T08:17:34;22.20;47.90
1614;DHT22;800;48.824;9.346;2023-08-31T08:20:00;21.80;48.70
1614;DHT22;800;48.824;9.346;2023-08-31T08:22:26;21.80;49.60
1614;DHT22;800;48.824;9.346;2023-08-31T08:24:51;22.00;49.70
1614;DHT22;800;48.824;9.346;2023-08-31T08:27:17;22.40;50.10
1614;DHT22;800;48.824;9.346;2023-08-31T08:29:46;22.80;49.30
1614;DHT22;800;48.824;9.346;2023-08-31T08:32:12;22.80;46.80
1614;DHT22;800;48.824;9.346;2023-08-31T08:34:37;22.70;45.00
1614;DHT22;800;48.824;9.346;2023-08-31T08:37:03;22.60;45.20
1614;DHT22;800;48.824;9.346;2023-08-31T08:39:29;22.80;46.30
1614;DHT22;800;48.824;9.346;2023-08-31T08:42:00;23.00;46.40
1614;DHT22;800;48.824;9.346;2023-08-31T08:44:32;22.80;46.30
1614;DHT22;800;48.824;9.346;2023-08-31T08:46:59;22.80;45.20
1614;DHT22;800;48.824;9.346;2023-08-31T08:49:26;22.50;44.40
1614;DHT22;800;48.824;9.346;2023-08-31T08:51:52;22.30;44.90
1614;DHT22;800;48.824;9.346;2023-08-31T08:54:18;22.20;46.30
1614;DHT22;800;48.824;9.346;2023-08-31T08:56:45;21.90;46.60
1614;DHT22;800;48.824;9.346;2023-08-31T08:59:11;21.80;48.00
1614;DHT22;800;48.824;9.346;2023-08-31T09:01:39;21.70;48.40
1614;DHT22;800;48.824;9.346;2023-08-31T09:04:05;21.60;49.10
1614;DHT22;800;48.824;9.346;2023-08-31T09:06:32;21.80;49.50
1614;DHT22;800;48.824;9.346;2023-08-31T09:08:58;21.80;48.20
1614;DHT22;800;48.824;9.346;2023-08-31T09:11:24;22.00;48.10
1614;DHT22;800;48.824;9.346;2023-08-31T09:13:50;22.00;48.00
1614;DHT22;800;48.824;9.346;2023-08-31T09:16:29;22.10;49.30
1614;DHT22;800;48.824;9.346;2023-08-31T09:18:56;22.40;48.00
1614;DHT22;800;48.824;9.346;2023-08-31T09:21:22;22.30;47.60
1614;DHT22;800;48.824;9.346;2023-08-31T09:23:59;22.40;47.80
1614;DHT22;800;48.824;9.346;2023-08-31T09:26:25;22.50;49.10
1614;DHT22;800;48.824;9.346;2023-08-31T09:28:51;22.40;48.00
1614;DHT22;800;48.824;9.346;2023-08-31T09:31:17;22.40;49.60
1614;DHT22;800;48.824;9.346;2023-08-31T09:33:50;22.50;50.60
1614;DHT22;800;48.824;9.346;2023-08-31T09:36:23;22.60;50.00
1614;DHT22;800;48.824;9.346;2023-08-31T09:38:48;22.70;49.40
1614;DHT22;800;48.824;9.346;2023-08-31T09:41:14;22.80;49.70
1614;DHT22;800;48.824;9.346;2023-08-31T09:43:43;22.70;49.00
1614;DHT22;800;48.824;9.346;2023-08-31T09:46:09;22.60;49.50
1614;DHT22;800;48.824;9.346;2023-08-31T09:48:37;22.70;48.70
1614;DHT22;800;48.824;9.346;2023-08-31T09:51:07;22.70;49.00
1614;DHT22;800;48.824;9.346;2023-08-31T09:53:36;22.70;48.50
1614;DHT22;800;48.824;9.346;2023-08-31T09:56:05;22.70;48.90
1614;DHT22;800;48.824;9.346;2023-08-31T09:58:31;22.60;47.30
1614;DHT22;800;48.824;9.346;2023-08-31T10:00:57;22.60;47.10
1614;DHT22;800;48.824;9.346;2023-08-31T10:03:23;22.60;46.00
1614;DHT22;800;48.824;9.346;2023-08-31T10:05:50;22.80;45.80
1614;DHT22;800;48.824;9.346;2023-08-31T10:08:16;22.70;45.20
1614;DHT22;800;48.824;9.346;2023-08-31T10:10:43;22.40;45.30
1614;DHT22;800;48.824;9.346;2023-08-31T10:13:09;22.60;46.00
1614;DHT22;800;48.824;9.346;2023-08-31T10:15:36;22.70;45.00
1614;DHT22;800;48.824;9.346;2023-08-31T10:18:03;22.40;43.70
1614;DHT22;800;48.824;9.346;2023-08-31T10:20:30;22.20;43.50
1614;DHT22;800;48.824;9.346;2023-08-31T10:23:09;22.40;43.60
1614;DHT22;800;48.824;9.346;2023-08-31T10:28:27;23.10;43.70
1614;DHT22;800;48.824;9.346;2023-08-31T10:31:16;23.30;43.90
1614;DHT22;800;48.824;9.346;2023-08-31T10:33:47;23.60;44.30
1614;DHT22;800;48.824;9.346;2023-08-31T10:36:20;23.60;42.00
1614;DHT22;800;48.824;9.346;2023-08-31T10:41:23;23.70;42.00
1614;DHT22;800;48.824;9.346;2023-08-31T10:43:57;23.60;41.80
1614;DHT22;800;48.824;9.346;2023-08-31T10:46:30;23.40;42.90
1614;DHT22;800;48.824;9.346;2023-08-31T10:51:34;23.10;41.60
1614;DHT22;800;48.824;9.346;2023-08-31T10:54:12;23.00;42.60
1614;DHT22;800;48.824;9.346;2023-08-31T10:59:52;22.90;42.30
1614;DHT22;800;48.824;9.346;2023-08-31T11:02:37;23.10;43.00
1614;DHT22;800;48.824;9.346;2023-08-31T11:05:07;23.40;43.80
1614;DHT22;800;48.824;9.346;2023-08-31T11:07:33;23.50;42.80
1614;DHT22;800;48.824;9.346;2023-08-31T11:10:19;23.40;41.60
1614;DHT22;800;48.824;9.346;2023-08-31T11:12:47;23.60;43.00
1614;DHT22;800;48.824;9.346;2023-08-31T11:15:14;23.60;41.80
1614;DHT22;800;48.824;9.346;2023-08-31T11:17:41;23.50;41.80
1614;DHT22;800;48.824;9.346;2023-08-31T11:20:09;23.70;43.20
1614;DHT22;800;48.824;9.346;2023-08-31T11:22:39;23.60;42.60
1614;DHT22;800;48.824;9.346;2023-08-31T11:25:07;23.70;42.70
1614;DHT22;800;48.824;9.346;2023-08-31T11:27:33;23.50;41.40
1614;DHT22;800;48.824;9.346;2023-08-31T11:29:59;23.50;42.90
1614;DHT22;800;48.824;9.346;2023-08-31T11:32:24;23.50;42.40
1614;DHT22;800;48.824;9.346;2023-08-31T11:34:50;23.50;42.50
1614;DHT22;800;48.824;9.346;2023-08-31T11:37:16;23.40;41.80
1614;DHT22;800;48.824;9.346;2023-08-31T11:39:51;23.40;43.80
1614;DHT22;800;48.824;9.346;2023-08-31T11:42:19;23.50;43.30
1614;DHT22;800;48.824;9.346;2023-08-31T11:44:50;23.60;42.50
1614;DHT22;800;48.824;9.346;2023-08-31T11:47:16;23.60;42.80
1614;DHT22;800;48.824;9.346;2023-08-31T11:49:43;23.90;45.20
1614;DHT22;800;48.824;9.346;2023-08-31T11:52:10;24.10;42.70
1614;DHT22;800;48.824;9.346;2023-08-31T11:54:38;24.30;42.20
1614;DHT22;800;48.824;9.346;2023-08-31T11:57:07;24.40;42.10
1614;DHT22;800;48.824;9.346;2023-08-31T11:59:35;24.60;42.70
1614;DHT22;800;48.824;9.346;2023-08-31T12:02:01;24.60;42.00
1614;DHT22;800;48.824;9.346;2023-08-31T12:04:27;24.60;41.30
1614;DHT22;800;48.824;9.346;2023-08-31T12:06:58;24.40;40.00
1614;DHT22;800;48.824;9.346;2023-08-31T12:09:27;24.20;40.30
1614;DHT22;800;48.824;9.346;2023-08-31T12:11:53;24.00;40.50
1614;DHT22;800;48.824;9.346;2023-08-31T12:14:20;24.20;41.40
1614;DHT22;800;48.824;9.346;2023-08-31T12:16:46;24.40;41.80
1614;DHT22;800;48.824;9.346;2023-08-31T12:19:12;24.30;40.60
1614;DHT22;800;48.824;9.346;2023-08-31T12:21:38;24.30;41.10
1614;DHT22;800;48.824;9.346;2023-08-31T12:24:04;24.40;40.50
1614;DHT22;800;48.824;9.346;2023-08-31T12:26:31;24.50;40.90
1614;DHT22;800;48.824;9.346;2023-08-31T12:28:57;24.60;41.70
1614;DHT22;800;48.824;9.346;2023-08-31T12:31:23;24.60;41.40
1614;DHT22;800;48.824;9.346;2023-08-31T12:33:49;24.40;41.00
1614;DHT22;800;48.824;9.346;2023-08-31T12:36:14;24.50;41.20
1614;DHT22;800;48.824;9.346;2023-08-31T12:38:40;24.20;41.20
1614;DHT22;800;48.824;9.346;2023-08-31T12:41:06;24.30;41.90
1614;DHT22;800;48.824;9.346;2023-08-31T12:43:31;24.20;41.50
1614;DHT22;800;48.824;9.346;2023-08-31T12:45:57;24.30;41.50
1614;DHT22;800;48.824;9.346;2023-08-31T12:48:24;24.50;41.80
1614;DHT22;800;48.824;9.346;2023-08-31T12:50:49;24.70;40.40
1614;DHT22;800;48.824;9.346;2023-08-31T12:53:15;24.80;41.20
1614;DHT22;800;48.824;9.346;2023-08-31T12:55:43;24.90;40.20
1614;DHT22;800;48.824;9.346;2023-08-31T12:58:09;24.90;39.40
1614;DHT22;800;48.824;9.346;2023-08-31T13:00:35;25.00;39.50
1614;DHT22;800;48.824;9.346;2023-08-31T13:03:00;25.00;39.10
1614;DHT22;800;48.824;9.346;2023-08-31T13:05:29;25.00;38.90
1614;DHT22;800;48.824;9.346;2023-08-31T13:07:55;24.80;39.30
1614;DHT22;800;48.824;9.346;2023-08-31T13:10:20;24.80;39.50
1614;DHT22;800;48.824;9.346;2023-08-31T13:12:46;24.80;39.40
1614;DHT22;800;48.824;9.346;2023-08-31T13:15:11;24.70;39.40
1614;DHT22;800;48.824;9.346;2023-08-31T13:17:38;24.70;40.20
1614;DHT22;800;48.824;9.346;2023-08-31T13:20:04;24.60;40.60
1614;DHT22;800;48.824;9.346;2023-08-31T13:22:30;24.40;39.80
1614;DHT22;800;48.824;9.346;2023-08-31T13:24:56;24.30;39.10
1614;DHT22;800;48.824;9.346;2023-08-31T13:27:22;24.10;40.00
1614;DHT22;800;48.824;9.346;2023-08-31T13:29:47;24.10;41.10
1614;DHT22;800;48.824;9.346;2023-08-31T13:32:13;24.00;41.40
1614;DHT22;800;48.824;9.346;2023-08-31T13:34:39;24.30;42.10
1614;DHT22;800;48.824;9.346;2023-08-31T13:37:05;24.50;41.30
1614;DHT22;800;48.824;9.346;2023-08-31T13:39:31;24.60;41.50
1614;DHT22;800;48.824;9.346;2023-08-31T13:41:57;24.40;40.90
1614;DHT22;800;48.824;9.346;2023-08-31T13:44:22;24.50;41.20
1614;DHT22;800;48.824;9.346;2023-08-31T13:46:48;24.70;41.20
1614;DHT22;800;48.824;9.346;2023-08-31T13:49:14;24.90;41.50
1614;DHT22;800;48.824;9.346;2023-08-31T13:51:41;25.00;39.70
1614;DHT22;800;48.824;9.346;2023-08-31T13:54:06;25.20;40.00
1614;DHT22;800;48.824;9.346;2023-08-31T13:56:33;25.60;41.20
1614;DHT22;800;48.824;9.346;2023-08-31T13:58:59;25.70;39.20
1614;DHT22;800;48.824;9.346;2023-08-31T14:01:25;25.80;39.00
1614;DHT22;800;48.824;9.346;2023-08-31T14:03:51;25.60;39.20
1614;DHT22;800;48.824;9.346;2023-08-31T14:06:17;25.60;38.50
1614;DHT22;800;48.824;9.346;2023-08-31T14:08:43;25.60;39.30
1614;DHT22;800;48.824;9.346;2023-08-31T14:11:08;25.60;39.50
1614;DHT22;800;48.824;9.346;2023-08-31T14:13:34;25.70;39.80
1614;DHT22;800;48.824;9.346;2023-08-31T14:16:00;25.60;39.20
1614;DHT22;800;48.824;9.346;2023-08-31T14:18:32;25.50;40.30
1614;DHT22;800;48.824;9.346;2023-08-31T14:20:58;25.60;39.80
1614;DHT22;800;48.824;9.346;2023-08-31T14:23:25;25.60;39.80
1614;DHT22;800;48.824;9.346;2023-08-31T14:25:51;25.70;40.00
1614;DHT22;800;48.824;9.346;2023-08-31T14:28:16;25.80;40.20
1614;DHT22;800;48.824;9.346;2023-08-31T14:30:42;25.90;40.40
1614;DHT22;800;48.824;9.346;2023-08-31T14:33:07;25.80;39.90
1614;DHT22;800;48.824;9.346;2023-08-31T14:35:37;25.70;40.60
1614;DHT22;800;48.824;9.346;2023-08-31T14:38:03;25.70;40.80
1614;DHT22;800;48.824;9.346;2023-08-31T14:40:28;25.70;40.70
1614;DHT22;800;48.824;9.346;2023-08-31T14:42:54;25.70;40.60
1614;DHT22;800;48.824;9.346;2023-08-31T14:45:20;25.60;40.20
1614;DHT22;800;48.824;9.346;2023-08-31T14:47:45;25.40;40.40
1614;DHT22;800;48.824;9.346;2023-08-31T14:50:11;25.30;40.70
1614;DHT22;800;48.824;9.346;2023-08-31T14:52:36;25.30;40.80
1614;DHT22;800;48.824;9.346;2023-08-31T14:55:05;25.30;41.30
1614;DHT22;800;48.824;9.346;2023-08-31T14:57:31;25.30;41.60
1614;DHT22;800;48.824;9.346;2023-08-31T14:59:57;25.20;41.40
1614;DHT22;800;48.824;9.346;2023-08-31T15:02:24;25.00;41.30
1614;DHT22;800;48.824;9.346;2023-08-31T15:04:50;24.90;41.80
1614;DHT22;800;48.824;9.346;2023-08-31T15:07:16;25.00;42.30
1614;DHT22;800;48.824;9.346;2023-08-31T15:09:43;25.10;42.70
1614;DHT22;800;48.824;9.346;2023-08-31T15:12:08;25.10;42.80
1614;DHT22;800;48.824;9.346;2023-08-31T15:14:34;25.10;43.10
1614;DHT22;800;48.824;9.346;2023-08-31T15:17:00;25.10;43.40
1614;DHT22;800;48.824;9.346;2023-08-31T15:19:25;25.00;43.60
1614;DHT22;800;48.824;9.346;2023-08-31T15:21:51;25.00;43.70
1614;DHT22;800;48.824;9.346;2023-08-31T15:24:16;25.00;43.80
1614;DHT22;800;48.824;9.346;2023-08-31T15:26:42;25.00;44.10
1614;DHT22;800;48.824;9.346;2023-08-31T15:29:09;25.00;43.90
1614;DHT22;800;48.824;9.346;2023-08-31T15:31:34;25.10;44.20
1614;DHT22;800;48.824;9.346;2023-08-31T15:34:00;25.10;44.30
1614;DHT22;800;48.824;9.346;2023-08-31T15:36:26;25.20;44.50
1614;DHT22;800;48.824;9.346;2023-08-31T15:38:51;25.30;44.30
1614;DHT22;800;48.824;9.346;2023-08-31T15:41:17;25.30;44.10
1614;DHT22;800;48.824;9.346;2023-08-31T15:43:43;25.40;44.70
1614;DHT22;800;48.824;9.346;2023-08-31T15:46:08;25.40;44.30
1614;DHT22;800;48.824;9.346;2023-08-31T15:48:34;25.50;45.10
1614;DHT22;800;48.824;9.346;2023-08-31T15:51:00;25.50;44.70
1614;DHT22;800;48.824;9.346;2023-08-31T15:53:26;25.40;43.90
1614;DHT22;800;48.824;9.346;2023-08-31T15:55:53;25.40;43.80
1614;DHT22;800;48.824;9.346;2023-08-31T15:58:19;25.40;44.20
1614;DHT22;800;48.824;9.346;2023-08-31T16:00:46;25.40;44.50
1614;DHT22;800;48.824;9.346;2023-08-31T16:03:12;25.40;44.50
1614;DHT22;800;48.824;9.346;2023-08-31T16:05:37;25.40;45.10
1614;DHT22;800;48.824;9.346;2023-08-31T16:08:04;25.40;44.40
1614;DHT22;800;48.824;9.346;2023-08-31T16:10:30;25.30;44.60
1614;DHT22;800;48.824;9.346;2023-08-31T16:12:56;25.30;44.50
1614;DHT22;800;48.824;9.346;2023-08-31T16:15:25;25.20;44.70
1614;DHT22;800;48.824;9.346;2023-08-31T16:17:52;25.20;44.70
1614;DHT22;800;48.824;9.346;2023-08-31T16:20:18;25.20;45.00
1614;DHT22;800;48.824;9.346;2023-08-31T16:22:44;25.20;45.10
1614;DHT22;800;48.824;9.346;2023-08-31T16:25:11;25.20;45.40
1614;DHT22;800;48.824;9.346;2023-08-31T16:27:37;25.10;45.60
1614;DHT22;800;48.824;9.346;2023-08-31T16:30:03;25.00;45.60
1614;DHT22;800;48.824;9.346;2023-08-31T16:32:29;25.00;45.80
1614;DHT22;800;48.824;9.346;2023-08-31T16:34:55;25.00;46.00
1614;DHT22;800;48.824;9.346;2023-08-31T16:37:21;24.90;46.30